Time;durP1;ratioP1;P1;durP2;ratioP2;P2;SDS_P1;SDS_P2;PMS_P1;PMS_P2;Temp;Humidity;BMP_temperature;BMP_pressure;BME280_temperature;BME280_humidity;BME280_pressure;Samples;Min_cycle;Max_cycle;Signal;HPM_P1;HPM_P2
2023/05/14 00:00:11;;;;;;;3.23;2.93;;;15.70;1.00;;;;;;4991662;28;20516;-72
2023/05/14 00:02:36;;;;;;;3.40;3.10;;;15.60;1.00;;;;;;4991194;28;20492;-72
2023/05/14 00:05:02;;;;;;;5.40;3.37;;;15.60;1.00;;;;;;4988662;28;20948;-72
2023/05/14 00:07:29;;;;;;;4.00;3.37;;;15.60;1.00;;;;;;4989917;28;20199;-72
2023/05/14 00:09:56;;;;;;;4.13;3.23;;;15.60;1.00;;;;;;4989442;28;20183;-72
2023/05/14 00:12:21;;;;;;;3.47;3.17;;;15.60;1.00;;;;;;4989955;28;20434;-72
2023/05/14 00:14:47;;;;;;;5.23;3.23;;;15.60;1.00;;;;;;4989531;28;20434;-72
2023/05/14 00:17:12;;;;;;;4.73;3.47;;;15.60;1.00;;;;;;4989751;28;20210;-71
2023/05/14 00:19:40;;;;;;;7.23;3.70;;;15.90;1.00;;;;;;4988172;28;20804;-72
2023/05/14 00:22:06;;;;;;;8.60;3.70;;;15.60;1.00;;;;;;4987943;28;20602;-72
2023/05/14 00:24:32;;;;;;;3.77;3.43;;;15.60;1.00;;;;;;4990172;28;20442;-72
2023/05/14 00:26:58;;;;;;;4.13;3.40;;;15.60;1.00;;;;;;4990232;28;20489;-72
2023/05/14 00:29:23;;;;;;;3.60;3.10;;;15.60;1.00;;;;;;4989561;28;20191;-72
2023/05/14 00:31:49;;;;;;;4.00;3.40;;;15.60;1.00;;;;;;4989233;28;20207;-71
2023/05/14 00:34:14;;;;;;;4.07;3.60;;;15.50;1.00;;;;;;4988355;28;20198;-72
2023/05/14 00:36:40;;;;;;;4.40;3.70;;;15.50;1.00;;;;;;4990222;28;20331;-73
2023/05/14 00:39:05;;;;;;;5.60;3.80;;;15.50;1.00;;;;;;4988351;28;20286;-72
2023/05/14 00:41:31;;;;;;;4.30;3.40;;;15.40;1.00;;;;;;4988600;28;20191;-73
2023/05/14 00:43:56;;;;;;;3.40;3.10;;;15.40;1.00;;;;;;4989791;28;20210;-72
2023/05/14 00:46:22;;;;;;;4.50;3.57;;;15.40;1.00;;;;;;4987818;28;20767;-72
2023/05/14 00:48:47;;;;;;;3.47;3.17;;;15.40;1.00;;;;;;4989472;28;20198;-73
2023/05/14 00:51:13;;;;;;;4.53;3.53;;;15.40;1.00;;;;;;4986846;28;20202;-71
2023/05/14 00:53:38;;;;;;;8.57;3.90;;;15.40;1.00;;;;;;4987634;28;20186;-72
2023/05/14 00:56:04;;;;;;;4.60;3.33;;;15.30;1.00;;;;;;4989030;28;20215;-72
2023/05/14 00:58:30;;;;;;;3.63;3.07;;;15.30;1.00;;;;;;4990023;28;20229;-72
2023/05/14 01:00:56;;;;;;;3.63;3.33;;;15.30;1.00;;;;;;4990534;28;20180;-74
2023/05/14 01:03:21;;;;;;;3.70;3.40;;;15.30;1.00;;;;;;4990456;28;20195;-72
2023/05/14 01:06:04;;;;;;;5.13;4.13;;;15.40;1.00;;;;;;4989866;28;21982;-72
2023/05/14 01:08:48;;;;;;;4.40;3.10;;;15.30;1.00;;;;;;4990623;28;20329;-73
2023/05/14 01:11:54;;;;;;;5.63;3.60;;;15.30;1.00;;;;;;4990031;28;20435;-72
2023/05/14 01:14:27;;;;;;;4.10;3.63;;;15.30;1.00;;;;;;4987405;28;20453;-72
2023/05/14 01:17:01;;;;;;;4.60;3.50;;;15.20;1.00;;;;;;4990805;28;20452;-72
2023/05/14 01:19:40;;;;;;;4.30;3.70;;;15.20;1.00;;;;;;4988557;28;20980;-72
2023/05/14 01:22:05;;;;;;;4.37;3.83;;;15.20;1.00;;;;;;5004671;28;20431;-72
2023/05/14 01:24:31;;;;;;;4.40;4.00;;;15.20;1.00;;;;;;4986017;28;20430;-72
2023/05/14 01:27:05;;;;;;;4.37;3.97;;;15.10;1.00;;;;;;4990281;28;20621;-72
2023/05/14 01:29:35;;;;;;;6.50;3.63;;;14.90;1.00;;;;;;4989875;28;20183;-72
2023/05/14 01:32:03;;;;;;;4.07;3.67;;;14.80;1.00;;;;;;4990346;28;20438;-72
2023/05/14 01:34:30;;;;;;;5.27;3.90;;;14.80;1.00;;;;;;4979725;28;20441;-72
2023/05/14 01:36:57;;;;;;;5.80;3.37;;;14.70;1.00;;;;;;4988105;28;20633;-72
2023/05/14 01:39:26;;;;;;;6.93;3.67;;;14.50;1.00;;;;;;4989224;28;20469;-72
2023/05/14 01:41:52;;;;;;;4.40;3.90;;;14.40;1.00;;;;;;4988334;28;20481;-72
2023/05/14 01:44:18;;;;;;;5.13;4.00;;;14.30;1.00;;;;;;4988324;28;20500;-72
2023/05/14 01:46:43;;;;;;;4.67;3.70;;;14.20;1.00;;;;;;5029746;22;20998;-71
2023/05/14 01:49:09;;;;;;;3.67;3.37;;;14.20;1.00;;;;;;5006685;28;20202;-71
2023/05/14 01:51:34;;;;;;;4.37;3.97;;;13.20;1.00;;;;;;5007663;28;20194;-71
2023/05/14 01:54:00;;;;;;;4.50;4.10;;;14.10;1.00;;;;;;5008457;28;20194;-70
2023/05/14 01:56:26;;;;;;;4.50;4.07;;;14.00;1.00;;;;;;4993564;28;20202;-69
2023/05/14 01:58:51;;;;;;;4.50;3.93;;;13.90;1.00;;;;;;4988011;28;20203;-72
2023/05/14 02:01:17;;;;;;;4.07;3.67;;;13.90;1.00;;;;;;4989478;28;20183;-70
2023/05/14 02:03:42;;;;;;;8.37;5.23;;;13.80;1.00;;;;;;4987577;28;20434;-70
2023/05/14 02:06:08;;;;;;;8.60;5.00;;;13.80;1.00;;;;;;4989909;28;20744;-70
2023/05/14 02:08:34;;;;;;;5.27;4.60;;;;;;;;;;4986961;28;20196;-71
2023/05/14 02:10:59;;;;;;;4.80;4.30;;;13.80;1.00;;;;;;4990040;28;20183;-69
2023/05/14 02:13:25;;;;;;;6.33;5.10;;;13.90;1.00;;;;;;4988970;28;20693;-70
2023/05/14 02:15:51;;;;;;;5.40;4.70;;;13.90;1.00;;;;;;4987818;28;20222;-70
2023/05/14 02:18:16;;;;;;;5.37;4.80;;;13.90;1.00;;;;;;4988159;28;20956;-71
2023/05/14 02:20:42;;;;;;;5.13;4.63;;;14.00;1.00;;;;;;4987116;28;20270;-71
2023/05/14 02:23:07;;;;;;;6.20;5.50;;;14.30;1.00;;;;;;4987984;28;20194;-70
2023/05/14 02:25:34;;;;;;;5.00;4.47;;;14.00;1.00;;;;;;4988506;28;20242;-71
2023/05/14 02:27:59;;;;;;;5.20;4.67;;;14.00;1.00;;;;;;4988475;28;20215;-70
2023/05/14 02:30:25;;;;;;;7.50;5.27;;;14.00;1.00;;;;;;4988614;28;20458;-70
2023/05/14 02:32:50;;;;;;;5.53;4.90;;;14.00;1.00;;;;;;4987062;28;20186;-71
2023/05/14 02:35:16;;;;;;;6.37;5.47;;;14.00;1.00;;;;;;4989423;28;20222;-69
2023/05/14 02:37:42;;;;;;;6.20;4.87;;;;;;;;;;4988371;28;20225;-70
2023/05/14 02:40:08;;;;;;;5.80;5.20;;;13.90;1.00;;;;;;4988974;28;20650;-69
2023/05/14 02:42:34;;;;;;;6.53;5.40;;;13.80;1.00;;;;;;4987539;28;20337;-71
2023/05/14 02:44:59;;;;;;;5.80;4.87;;;13.70;1.00;;;;;;4985106;28;20597;-71
2023/05/14 02:47:25;;;;;;;7.43;5.30;;;13.70;1.00;;;;;;4992306;28;20422;-71
2023/05/14 02:49:50;;;;;;;5.70;4.97;;;13.60;1.00;;;;;;4991156;28;20210;-70
2023/05/14 02:52:16;;;;;;;7.47;4.70;;;13.50;1.00;;;;;;4993279;28;20742;-70
2023/05/14 02:54:41;;;;;;;7.43;5.17;;;13.40;1.00;;;;;;4993503;28;20198;-70
2023/05/14 02:57:07;;;;;;;7.30;5.40;;;13.20;1.00;;;;;;4992748;28;20183;-70
2023/05/14 02:59:33;;;;;;;5.33;4.60;;;13.20;1.00;;;;;;4992790;28;20282;-70
2023/05/14 03:01:58;;;;;;;6.20;5.27;;;13.10;1.00;;;;;;4992093;28;20342;-71
2023/05/14 03:04:24;;;;;;;5.60;5.00;;;13.00;1.00;;;;;;4990445;28;20187;-72
2023/05/14 03:06:49;;;;;;;5.60;5.00;;;13.00;1.00;;;;;;4990796;28;20198;-70
2023/05/14 03:09:15;;;;;;;6.00;4.83;;;13.00;1.00;;;;;;4990780;28;20191;-71
2023/05/14 03:11:40;;;;;;;5.60;4.80;;;12.90;1.00;;;;;;4991495;28;20266;-71
2023/05/14 03:14:06;;;;;;;6.80;5.03;;;13.00;1.00;;;;;;4989607;28;20217;-70
2023/05/14 03:16:31;;;;;;;5.80;4.70;;;13.00;1.00;;;;;;4989874;28;20203;-71
2023/05/14 03:18:56;;;;;;;5.30;4.80;;;13.10;1.00;;;;;;4990950;28;20619;-70
2023/05/14 03:21:22;;;;;;;8.97;5.37;;;13.20;1.00;;;;;;4989307;28;20183;-70
2023/05/14 03:23:48;;;;;;;6.23;5.10;;;13.20;1.00;;;;;;5005704;28;20221;-70
2023/05/14 03:26:13;;;;;;;5.23;4.43;;;13.20;1.00;;;;;;4990748;28;20261;-70
2023/05/14 03:28:39;;;;;;;5.23;4.73;;;13.20;1.00;;;;;;4989996;28;20253;-69
2023/05/14 03:31:05;;;;;;;5.93;5.33;;;13.20;1.00;;;;;;4990805;28;20187;-71
2023/05/14 03:33:30;;;;;;;6.40;5.43;;;13.20;1.00;;;;;;4989086;28;20816;-71
2023/05/14 03:35:56;;;;;;;8.87;5.17;;;13.10;1.00;;;;;;4989011;28;20289;-70
2023/05/14 03:38:21;;;;;;;5.40;4.90;;;13.00;1.00;;;;;;4988946;28;20233;-72
2023/05/14 03:40:47;;;;;;;7.63;4.80;;;13.10;1.00;;;;;;4990249;28;20218;-69
2023/05/14 03:43:12;;;;;;;6.00;5.03;;;13.20;1.00;;;;;;4988922;28;20190;-71
2023/05/14 03:45:38;;;;;;;5.90;5.10;;;13.20;1.00;;;;;;4989289;28;20207;-70
2023/05/14 03:48:04;;;;;;;10.10;5.43;;;13.20;1.00;;;;;;4988898;28;20201;-70
2023/05/14 03:50:30;;;;;;;7.93;5.13;;;13.10;1.00;;;;;;4988667;28;20222;-69
2023/05/14 03:52:55;;;;;;;6.70;5.40;;;13.00;1.00;;;;;;4990155;28;20485;-70
2023/05/14 03:55:21;;;;;;;5.27;4.67;;;13.00;1.00;;;;;;4989983;28;20573;-70
2023/05/14 03:57:47;;;;;;;6.63;5.60;;;12.90;1.00;;;;;;4990775;28;20638;-70
2023/05/14 04:00:13;;;;;;;6.50;5.67;;;13.00;1.00;;;;;;4989057;28;20226;-69
2023/05/14 04:02:38;;;;;;;7.00;5.70;;;13.00;1.00;;;;;;4990951;28;20282;-70
2023/05/14 04:05:04;;;;;;;6.90;5.77;;;13.10;1.00;;;;;;4989118;28;20684;-69
2023/05/14 04:07:29;;;;;;;6.17;5.57;;;13.30;1.00;;;;;;4989698;28;20654;-71
2023/05/14 04:09:55;;;;;;;10.70;5.60;;;13.50;1.00;;;;;;4990341;28;20253;-71
2023/05/14 04:12:20;;;;;;;5.60;5.00;;;13.60;1.00;;;;;;4988502;28;20194;-70
2023/05/14 04:14:46;;;;;;;5.77;5.00;;;14.90;1.00;;;;;;4989880;28;20187;-70
2023/05/14 04:17:12;;;;;;;5.90;5.30;;;13.70;1.00;;;;;;4987840;28;20569;-70
2023/05/14 04:19:39;;;;;;;6.33;5.40;;;;;;;;;;4989811;28;20218;-69
2023/05/14 04:22:04;;;;;;;7.73;5.30;;;13.70;1.00;;;;;;4988742;28;20207;-70
2023/05/14 04:24:30;;;;;;;7.73;5.30;;;13.80;1.00;;;;;;4989257;28;20450;-70
2023/05/14 04:26:55;;;;;;;5.73;5.13;;;13.80;1.00;;;;;;4990649;28;20214;-69
2023/05/14 04:29:21;;;;;;;5.43;4.93;;;13.80;1.00;;;;;;4988065;28;20680;-70
2023/05/14 04:31:48;;;;;;;6.90;5.80;;;13.80;1.00;;;;;;4989414;28;20661;-70
2023/05/14 04:34:14;;;;;;;6.40;5.57;;;13.90;1.00;;;;;;4988997;28;20194;-71
2023/05/14 04:36:40;;;;;;;6.67;5.60;;;13.50;1.00;;;;;;4988381;28;20458;-70
2023/05/14 04:39:05;;;;;;;5.70;5.07;;;14.10;1.00;;;;;;4990193;28;20206;-70
2023/05/14 04:41:31;;;;;;;7.20;6.00;;;14.20;1.00;;;;;;4988200;28;20266;-70
2023/05/14 04:43:59;;;;;;;6.60;5.90;;;14.20;1.00;;;;;;4988207;28;20262;-69
2023/05/14 04:46:25;;;;;;;7.70;5.80;;;14.20;1.00;;;;;;4987168;28;20233;-70
2023/05/14 04:48:50;;;;;;;6.27;5.43;;;14.30;1.00;;;;;;4989933;28;20809;-70
2023/05/14 04:51:16;;;;;;;8.57;5.67;;;14.40;1.00;;;;;;4988459;28;20442;-69
2023/05/14 04:53:41;;;;;;;9.33;5.73;;;14.50;1.00;;;;;;4989357;28;20188;-70
2023/05/14 04:56:07;;;;;;;5.93;5.10;;;14.60;1.00;;;;;;4988870;28;20206;-70
2023/05/14 04:58:32;;;;;;;6.87;6.00;;;14.70;1.00;;;;;;4989758;28;20214;-69
2023/05/14 05:00:58;;;;;;;6.30;5.60;;;14.80;1.00;;;;;;4987869;28;20210;-70
2023/05/14 05:03:24;;;;;;;5.80;5.27;;;14.90;1.00;;;;;;4987699;28;20179;-70
2023/05/14 05:05:50;;;;;;;5.50;5.00;;;15.00;1.00;;;;;;4989900;28;20249;-72
2023/05/14 05:08:15;;;;;;;6.10;5.20;;;15.00;1.00;;;;;;4988188;28;20266;-70
2023/05/14 05:10:41;;;;;;;6.27;5.67;;;15.10;1.00;;;;;;4990083;28;20278;-70
2023/05/14 05:13:06;;;;;;;10.23;5.90;;;15.20;1.00;;;;;;4988171;28;20187;-70
2023/05/14 05:15:32;;;;;;;7.43;5.83;;;15.20;1.00;;;;;;4986273;28;20214;-71
2023/05/14 05:17:57;;;;;;;8.03;5.53;;;15.10;1.00;;;;;;4988788;28;20278;-71
2023/05/14 05:20:23;;;;;;;6.60;5.37;;;15.20;1.00;;;;;;4988252;28;20662;-71
2023/05/14 05:22:49;;;;;;;5.33;4.83;;;15.30;1.00;;;;;;4987513;28;20175;-71
2023/05/14 05:25:15;;;;;;;6.03;5.43;;;15.40;1.00;;;;;;4987522;28;20509;-72
2023/05/14 05:27:40;;;;;;;7.10;5.50;;;15.40;1.00;;;;;;4984668;28;20175;-71
2023/05/14 05:30:07;;;;;;;6.57;5.40;;;15.40;1.00;;;;;;4988532;28;20650;-73
2023/05/14 05:32:32;;;;;;;7.03;5.50;;;15.50;1.00;;;;;;4985277;28;20194;-71
2023/05/14 05:34:58;;;;;;;7.40;5.53;;;15.80;1.00;;;;;;4988075;28;20438;-69
2023/05/14 05:37:24;;;;;;;6.10;5.37;;;15.80;1.00;;;;;;4987724;28;20676;-71
2023/05/14 05:39:49;;;;;;;6.70;5.20;;;16.00;1.00;;;;;;4987485;28;20207;-71
2023/05/14 05:42:15;;;;;;;6.93;6.00;;;16.20;1.00;;;;;;4985484;28;20187;-70
2023/05/14 05:44:40;;;;;;;7.00;5.90;;;16.20;1.00;;;;;;4985118;28;20653;-71
2023/05/14 05:47:06;;;;;;;6.30;5.67;;;16.30;1.00;;;;;;4985989;28;20248;-71
2023/05/14 05:49:32;;;;;;;7.27;6.40;;;16.50;1.00;;;;;;4988040;28;20197;-70
2023/05/14 05:51:57;;;;;;;6.80;6.10;;;16.60;1.00;;;;;;4987790;28;20187;-70
2023/05/14 05:54:23;;;;;;;7.03;6.20;;;16.80;1.00;;;;;;4987653;28;20198;-73
2023/05/14 05:56:49;;;;;;;9.60;6.07;;;16.90;1.00;;;;;;4988425;28;20206;-73
2023/05/14 05:59:15;;;;;;;8.30;6.30;;;16.80;1.00;;;;;;4987326;28;20477;-73
2023/05/14 06:01:42;;;;;;;7.27;6.57;;;16.90;1.00;;;;;;4986968;28;20192;-72
2023/05/14 06:04:08;;;;;;;7.53;6.37;;;17.00;1.00;;;;;;4988360;28;20714;-73
2023/05/14 06:06:33;;;;;;;7.10;6.40;;;17.00;1.00;;;;;;4985238;28;20550;-73
2023/05/14 06:09:00;;;;;;;10.10;6.20;;;17.10;1.00;;;;;;4986535;28;20462;-72
2023/05/14 06:11:26;;;;;;;8.33;6.60;;;17.30;1.00;;;;;;4987472;28;20190;-73
2023/05/14 06:13:51;;;;;;;7.80;6.60;;;17.40;1.00;;;;;;4986929;28;21595;-73
2023/05/14 06:16:17;;;;;;;7.23;6.40;;;17.60;1.00;;;;;;4987444;28;20227;-74
2023/05/14 06:18:43;;;;;;;13.30;7.40;;;17.90;1.00;;;;;;4983170;28;20203;-72
2023/05/14 06:21:08;;;;;;;7.80;6.30;;;18.00;1.00;;;;;;4985584;28;20210;-73
2023/05/14 06:23:34;;;;;;;7.23;6.53;;;18.10;1.00;;;;;;4985858;28;20183;-73
2023/05/14 06:25:59;;;;;;;9.33;7.43;;;18.10;1.00;;;;;;4984768;28;20234;-73
2023/05/14 06:28:25;;;;;;;7.87;7.00;;;17.80;1.00;;;;;;4982294;28;20187;-73
2023/05/14 06:30:52;;;;;;;9.07;7.00;;;17.90;1.00;;;;;;4983638;28;20266;-74
2023/05/14 06:33:20;;;;;;;9.57;6.63;;;18.20;1.00;;;;;;4984827;28;20187;-73
2023/05/14 06:35:45;;;;;;;10.37;6.97;;;18.50;1.00;;;;;;4980993;28;20461;-73
2023/05/14 06:38:11;;;;;;;11.00;7.43;;;18.40;1.00;;;;;;4986188;28;20453;-73
2023/05/14 06:40:36;;;;;;;8.70;6.27;;;18.60;1.00;;;;;;4984084;28;20376;-74
2023/05/14 06:43:02;;;;;;;6.90;6.20;;;18.50;1.00;;;;;;4983496;28;20167;-73
2023/05/14 06:45:29;;;;;;;9.77;6.40;;;18.40;1.00;;;;;;4981914;28;20242;-73
2023/05/14 06:47:54;;;;;;;8.97;6.77;;;18.30;1.00;;;;;;4985352;28;20179;-73
2023/05/14 06:50:20;;;;;;;7.40;6.20;;;18.10;1.00;;;;;;4985152;28;20991;-73
2023/05/14 06:52:45;;;;;;;8.37;6.77;;;17.80;1.00;;;;;;4985292;28;20179;-73
2023/05/14 06:55:11;;;;;;;9.70;7.27;;;17.70;1.00;;;;;;4986304;28;20199;-74
2023/05/14 06:57:37;;;;;;;7.80;6.67;;;17.60;1.00;;;;;;4984988;28;20246;-74
2023/05/14 07:00:04;;;;;;;9.20;7.17;;;17.50;1.00;;;;;;4980338;28;20206;-74
2023/05/14 07:02:29;;;;;;;12.43;7.30;;;17.40;1.00;;;;;;4986688;28;20473;-74
2023/05/14 07:04:55;;;;;;;8.40;7.40;;;17.50;1.00;;;;;;4984425;28;20475;-73
2023/05/14 07:07:20;;;;;;;8.03;7.20;;;17.50;1.00;;;;;;4984481;28;20183;-71
2023/05/14 07:09:46;;;;;;;9.03;7.97;;;17.60;1.00;;;;;;4985551;28;20246;-74
2023/05/14 07:12:12;;;;;;;8.13;7.33;;;17.40;1.00;;;;;;4983736;28;20249;-73
2023/05/14 07:14:37;;;;;;;8.03;7.07;;;17.50;1.00;;;;;;4985665;28;20449;-72
2023/05/14 07:17:03;;;;;;;9.73;7.97;;;17.50;1.00;;;;;;4985273;28;20281;-73
2023/05/14 07:19:29;;;;;;;9.40;7.63;;;17.40;1.00;;;;;;4985572;28;20199;-73
2023/05/14 07:21:55;;;;;;;11.83;7.73;;;17.30;1.00;;;;;;4986606;28;20183;-74
2023/05/14 07:24:20;;;;;;;10.90;8.47;;;17.20;1.00;;;;;;4987001;28;20183;-73
2023/05/14 07:26:46;;;;;;;10.03;7.83;;;17.20;1.00;;;;;;4985959;28;20465;-72
2023/05/14 07:29:11;;;;;;;9.87;7.93;;;17.20;1.00;;;;;;4985808;28;20673;-72
2023/05/14 07:31:37;;;;;;;7.43;6.60;;;17.20;1.00;;;;;;4985078;28;20187;-73
2023/05/14 07:34:02;;;;;;;9.30;7.40;;;17.20;1.00;;;;;;4989788;28;20179;-72
2023/05/14 07:36:28;;;;;;;8.23;6.90;;;17.30;1.00;;;;;;4982299;28;20211;-72
2023/05/14 07:38:53;;;;;;;9.40;7.17;;;17.60;1.00;;;;;;4989243;28;20203;-73
2023/05/14 07:41:19;;;;;;;8.80;7.70;;;17.90;1.00;;;;;;4989124;28;20191;-73
2023/05/14 07:43:45;;;;;;;7.90;6.50;;;17.80;1.00;;;;;;4987485;28;20803;-72
2023/05/14 07:46:10;;;;;;;8.50;6.70;;;18.00;1.00;;;;;;4987093;28;21049;-73
2023/05/14 07:48:36;;;;;;;7.87;6.90;;;18.30;1.00;;;;;;4985518;28;20329;-72
2023/05/14 07:51:01;;;;;;;9.43;7.30;;;18.50;1.00;;;;;;4986533;28;20191;-73
2023/05/14 07:53:27;;;;;;;8.53;6.90;;;18.60;1.00;;;;;;4989254;28;20304;-71
2023/05/14 07:55:53;;;;;;;7.63;6.47;;;19.80;1.00;;;;;;4988559;28;20627;-72
2023/05/14 07:58:18;;;;;;;9.67;7.33;;;19.00;1.00;;;;;;4990566;28;20716;-73
2023/05/14 08:00:44;;;;;;;10.47;7.40;;;18.90;1.00;;;;;;4989326;28;20507;-73
2023/05/14 08:03:09;;;;;;;8.60;7.23;;;18.80;1.00;;;;;;4991011;28;20183;-73
2023/05/14 08:05:35;;;;;;;8.57;7.57;;;18.70;1.00;;;;;;4991389;28;20203;-73
2023/05/14 08:08:01;;;;;;;9.03;7.30;;;18.70;1.00;;;;;;4992087;28;20209;-72
2023/05/14 08:10:27;;;;;;;10.03;7.70;;;19.00;1.00;;;;;;4990419;28;20186;-71
2023/05/14 08:12:52;;;;;;;9.93;6.97;;;19.60;1.00;;;;;;4991943;28;20529;-72
2023/05/14 08:15:18;;;;;;;8.33;7.17;;;20.00;1.00;;;;;;4991659;28;20697;-72
2023/05/14 08:17:43;;;;;;;9.57;7.93;;;20.00;1.00;;;;;;4991368;28;20211;-73
2023/05/14 08:20:10;;;;;;;8.63;7.40;;;20.00;1.00;;;;;;4991733;28;20180;-73
2023/05/14 08:22:36;;;;;;;9.70;7.43;;;20.10;1.00;;;;;;4991389;28;20179;-73
2023/05/14 08:25:02;;;;;;;8.60;7.30;;;20.00;1.00;;;;;;4991193;28;20524;-73
2023/05/14 08:27:28;;;;;;;8.93;7.50;;;20.10;1.00;;;;;;4991637;28;20457;-71
2023/05/14 08:29:53;;;;;;;8.70;7.40;;;20.30;1.00;;;;;;4991658;28;20454;-73
2023/05/14 08:32:19;;;;;;;9.17;7.50;;;20.70;1.00;;;;;;4991550;28;20211;-73
2023/05/14 08:34:45;;;;;;;8.47;7.53;;;21.50;1.00;;;;;;4989597;28;20286;-73
2023/05/14 08:37:10;;;;;;;8.33;7.20;;;21.90;1.00;;;;;;4990346;28;20179;-73
2023/05/14 08:39:36;;;;;;;7.90;6.80;;;22.00;1.00;;;;;;4991065;28;20202;-73
2023/05/14 08:42:05;;;;;;;7.70;6.57;;;22.90;1.00;;;;;;4991428;28;20190;-73
2023/05/14 08:44:43;;;;;;;10.20;6.60;;;24.40;1.00;;;;;;4990154;28;20668;-73
2023/05/14 08:47:11;;;;;;;7.40;6.50;;;24.70;1.00;;;;;;4991565;28;20433;-74
2023/05/14 08:49:45;;;;;;;8.63;6.47;;;24.70;1.00;;;;;;4990975;28;20915;-74
2023/05/14 08:52:11;;;;;;;7.33;6.53;;;26.50;1.00;;;;;;4991236;28;20492;-74
2023/05/14 08:54:38;;;;;;;7.20;6.20;;;27.40;1.00;;;;;;4990551;28;20449;-73
2023/05/14 08:57:05;;;;;;;6.73;5.90;;;26.80;1.00;;;;;;4991190;28;20540;-73
2023/05/14 08:59:31;;;;;;;7.23;5.80;;;26.10;1.00;;;;;;4989444;28;20556;-72
2023/05/14 09:02:00;;;;;;;8.37;6.63;;;25.20;1.00;;;;;;4991041;28;20525;-73
2023/05/14 09:04:27;;;;;;;9.57;7.27;;;24.90;1.00;;;;;;4990459;28;20257;-73
2023/05/14 09:06:54;;;;;;;8.23;6.57;;;24.50;1.00;;;;;;4990677;28;20512;-73
2023/05/14 09:09:23;;;;;;;8.33;6.50;;;24.80;1.00;;;;;;4990993;28;20426;-74
2023/05/14 09:11:50;;;;;;;7.37;6.57;;;24.00;1.00;;;;;;4989300;28;20442;-72
2023/05/14 09:14:16;;;;;;;7.47;6.67;;;23.80;1.00;;;;;;4990597;28;20492;-73
2023/05/14 09:16:47;;;;;;;7.20;6.40;;;23.80;1.00;;;;;;4990443;28;20454;-74
2023/05/14 09:19:14;;;;;;;7.37;6.10;;;24.10;1.00;;;;;;4990735;28;20214;-74
2023/05/14 09:21:40;;;;;;;8.60;6.70;;;24.40;1.00;;;;;;4990155;28;20426;-73
2023/05/14 09:24:06;;;;;;;8.50;6.60;;;24.20;1.00;;;;;;4990318;28;20477;-73
2023/05/14 09:26:33;;;;;;;7.57;6.67;;;24.00;1.00;;;;;;4990142;28;20446;-72
2023/05/14 09:29:03;;;;;;;7.30;6.50;;;24.10;1.00;;;;;;4990635;28;20222;-73
2023/05/14 09:31:30;;;;;;;8.20;6.67;;;24.00;1.00;;;;;;4988569;28;20434;-74
2023/05/14 09:33:56;;;;;;;8.20;6.43;;;23.90;1.00;;;;;;4989850;28;20458;-73
2023/05/14 09:36:23;;;;;;;10.80;7.00;;;24.10;1.00;;;;;;4989207;28;20469;-74
2023/05/14 09:38:49;;;;;;;8.17;6.57;;;25.00;1.00;;;;;;4986474;28;20230;-76
2023/05/14 09:41:15;;;;;;;8.20;6.70;;;25.20;1.00;;;;;;4982751;28;20473;-74
2023/05/14 09:43:40;;;;;;;7.00;6.10;;;24.90;1.00;;;;;;4982892;28;20187;-74
2023/05/14 09:46:06;;;;;;;7.57;6.77;;;24.50;1.00;;;;;;4982344;28;20305;-74
2023/05/14 09:48:31;;;;;;;6.83;6.13;;;24.00;1.00;;;;;;4984720;28;20188;-74
2023/05/14 09:50:57;;;;;;;7.00;5.87;;;23.80;1.00;;;;;;4986730;28;20772;-74
2023/05/14 09:53:22;;;;;;;6.77;5.87;;;23.80;1.00;;;;;;4988435;28;20194;-73
2023/05/14 09:55:48;;;;;;;6.93;5.93;;;23.80;1.00;;;;;;4985968;28;20577;-73
2023/05/14 09:58:14;;;;;;;7.27;6.27;;;24.00;1.00;;;;;;4989247;28;20206;-74
2023/05/14 10:00:43;;;;;;;6.70;6.00;;;24.00;1.00;;;;;;4989106;28;20179;-74
2023/05/14 10:03:12;;;;;;;11.27;6.50;;;23.80;1.00;;;;;;4987124;28;20397;-73
2023/05/14 10:05:40;;;;;;;6.93;6.10;;;23.70;1.00;;;;;;4987771;28;20457;-73
2023/05/14 10:08:18;;;;;;;7.47;6.10;;;23.50;1.00;;;;;;4986582;28;20431;-73
2023/05/14 10:10:43;;;;;;;7.13;6.37;;;23.20;1.00;;;;;;4987096;28;20444;-73
2023/05/14 10:13:14;;;;;;;7.17;6.47;;;23.20;1.00;;;;;;4985995;28;20445;-73
2023/05/14 10:15:46;;;;;;;7.37;6.50;;;22.90;1.00;;;;;;4982445;28;20206;-72
2023/05/14 10:18:17;;;;;;;6.53;5.83;;;22.90;1.00;;;;;;4982593;28;20487;-73
2023/05/14 10:20:46;;;;;;;7.47;6.03;;;22.80;1.00;;;;;;4991666;28;20449;-74
2023/05/14 10:23:13;;;;;;;6.70;5.83;;;22.60;1.00;;;;;;4989255;28;20429;-74
2023/05/14 10:25:39;;;;;;;7.17;6.40;;;22.40;1.00;;;;;;4986478;28;20449;-71
2023/05/14 10:28:05;;;;;;;7.17;6.00;;;22.30;1.00;;;;;;4987742;28;20481;-74
2023/05/14 10:30:31;;;;;;;7.67;5.87;;;22.20;1.00;;;;;;4986165;28;20518;-73
2023/05/14 10:33:26;;;;;;;8.60;6.50;;;22.20;1.00;;;;;;4984715;28;20187;-73
2023/05/14 10:36:04;;;;;;;8.60;5.80;;;22.10;1.00;;;;;;4971909;28;20464;-73
2023/05/14 10:38:35;;;;;;;8.47;6.00;;;22.20;1.00;;;;;;4985626;28;20461;-73
2023/05/14 10:41:04;;;;;;;7.40;6.07;;;22.10;1.00;;;;;;4986386;28;20473;-77
2023/05/14 10:43:30;;;;;;;12.00;6.80;;;22.20;1.00;;;;;;4985538;28;20448;-73
2023/05/14 10:45:57;;;;;;;6.80;6.00;;;22.30;1.00;;;;;;4982492;28;20488;-73
2023/05/14 10:48:24;;;;;;;8.03;6.43;;;22.50;1.00;;;;;;4983034;28;20453;-72
2023/05/14 10:50:50;;;;;;;7.80;5.70;;;22.60;1.00;;;;;;4983742;28;21021;-74
2023/05/14 10:53:16;;;;;;;8.17;6.50;;;22.70;1.00;;;;;;4988404;28;20471;-74
2023/05/14 10:55:42;;;;;;;6.53;5.70;;;23.00;1.00;;;;;;4988585;28;20453;-73
2023/05/14 10:58:09;;;;;;;6.30;5.60;;;23.20;1.00;;;;;;4989053;28;20207;-74
2023/05/14 11:00:36;;;;;;;6.30;5.57;;;22.90;1.00;;;;;;4989198;28;20426;-74
2023/05/14 11:03:04;;;;;;;7.27;5.43;;;23.00;1.00;;;;;;4988745;28;20529;-74
2023/05/14 11:05:30;;;;;;;5.80;5.13;;;22.90;1.00;;;;;;4988916;28;20593;-73
2023/05/14 11:07:57;;;;;;;6.37;5.67;;;23.40;1.00;;;;;;4992890;28;20492;-74
2023/05/14 11:10:28;;;;;;;6.43;5.27;;;23.70;1.00;;;;;;4993237;28;20444;-74
2023/05/14 11:12:56;;;;;;;6.53;5.73;;;24.10;1.00;;;;;;4992578;28;20418;-74
2023/05/14 11:15:23;;;;;;;6.03;5.40;;;24.00;1.00;;;;;;4992984;28;20481;-74
2023/05/14 11:17:50;;;;;;;7.90;5.93;;;23.70;1.00;;;;;;4990619;28;20440;-74
2023/05/14 11:20:16;;;;;;;6.63;5.93;;;23.20;1.00;;;;;;4991231;28;20441;-73
2023/05/14 11:22:43;;;;;;;6.47;5.77;;;23.50;1.00;;;;;;4990145;28;20812;-73
2023/05/14 11:25:13;;;;;;;7.30;5.60;;;24.10;1.00;;;;;;4991565;28;20465;-73
2023/05/14 11:27:39;;;;;;;6.70;5.67;;;24.40;1.00;;;;;;4989265;28;20505;-72
2023/05/14 11:30:15;;;;;;;7.50;5.77;;;24.40;1.00;;;;;;4990284;28;20670;-73
2023/05/14 11:32:41;;;;;;;6.47;5.10;;;24.20;1.00;;;;;;4990118;28;20440;-72
2023/05/14 11:35:07;;;;;;;5.40;4.87;;;24.30;1.00;;;;;;4990221;28;20551;-73
2023/05/14 11:37:32;;;;;;;6.50;5.80;;;24.70;1.00;;;;;;4992444;28;20433;-74
2023/05/14 11:39:59;;;;;;;6.27;5.53;;;24.80;1.00;;;;;;4991923;28;20843;-74
2023/05/14 11:42:25;;;;;;;7.80;5.63;;;24.80;1.00;;;;;;4992545;28;20182;-73
2023/05/14 11:44:52;;;;;;;6.03;5.10;;;25.20;1.00;;;;;;4989696;28;20416;-74
2023/05/14 11:47:19;;;;;;;6.13;5.20;;;25.70;1.00;;;;;;4992633;28;20221;-74
2023/05/14 11:49:45;;;;;;;6.50;5.80;;;26.00;1.00;;;;;;4991739;28;20434;-73
2023/05/14 11:52:13;;;;;;;6.00;5.40;;;26.00;1.00;;;;;;4992294;28;20425;-74
2023/05/14 11:54:40;;;;;;;6.30;5.53;;;26.10;1.00;;;;;;4990776;28;20676;-74
2023/05/14 11:57:11;;;;;;;6.43;5.40;;;26.40;1.00;;;;;;4992242;28;20445;-74
2023/05/14 11:59:38;;;;;;;5.83;5.23;;;27.10;1.00;;;;;;4991668;28;20527;-74
2023/05/14 12:02:04;;;;;;;6.23;4.80;;;27.40;1.00;;;;;;4991378;28;20438;-74
2023/05/14 12:04:30;;;;;;;7.10;4.97;;;27.90;1.00;;;;;;4990675;28;20430;-74
2023/05/14 12:06:58;;;;;;;6.93;5.13;;;28.00;1.00;;;;;;4991845;28;20446;-74
2023/05/14 12:09:24;;;;;;;7.10;5.30;;;27.70;1.00;;;;;;4991356;28;20182;-75
2023/05/14 12:11:50;;;;;;;11.43;5.70;;;27.70;1.00;;;;;;4990243;28;20445;-74
2023/05/14 12:14:18;;;;;;;5.53;4.93;;;27.60;1.00;;;;;;4991806;28;20409;-74
2023/05/14 12:16:45;;;;;;;5.70;4.43;;;27.30;1.00;;;;;;4990010;28;20465;-73
2023/05/14 12:19:13;;;;;;;5.77;5.17;;;27.10;1.00;;;;;;4991448;28;20673;-74
2023/05/14 12:21:39;;;;;;;5.60;5.00;;;27.10;1.00;;;;;;4992036;28;20191;-74
2023/05/14 12:24:09;;;;;;;5.97;5.27;;;27.10;1.00;;;;;;4991295;28;20202;-74
2023/05/14 12:26:37;;;;;;;6.93;5.30;;;26.50;1.00;;;;;;4990083;28;20445;-74
2023/05/14 12:29:05;;;;;;;6.70;5.47;;;25.90;1.00;;;;;;4991191;28;20429;-74
2023/05/14 12:31:32;;;;;;;8.67;5.50;;;25.50;1.00;;;;;;4991336;28;20936;-73
2023/05/14 12:33:58;;;;;;;6.10;5.40;;;25.50;1.00;;;;;;4991053;28;20441;-74
2023/05/14 12:36:24;;;;;;;5.90;5.10;;;27.00;1.00;;;;;;4991384;28;20519;-74
2023/05/14 12:38:55;;;;;;;7.30;4.60;;;29.90;1.00;;;;;;4990971;28;20688;-74
2023/05/14 12:41:21;;;;;;;5.90;4.93;;;31.60;1.00;;;;;;4991469;28;20270;-74
2023/05/14 12:43:47;;;;;;;5.23;4.73;;;30.80;1.00;;;;;;4991257;28;20617;-74
2023/05/14 12:46:13;;;;;;;5.47;4.50;;;29.70;1.00;;;;;;4989608;28;20210;-74
2023/05/14 12:48:38;;;;;;;5.60;4.90;;;29.30;1.00;;;;;;4990843;28;20755;-74
2023/05/14 12:51:05;;;;;;;7.33;5.07;;;29.20;1.00;;;;;;4990970;28;20213;-74
2023/05/14 12:53:30;;;;;;;5.93;4.53;;;29.00;1.00;;;;;;4991154;28;20232;-74